Terminal Aerodrome Forecast
Issued by NWS

Home | Current Version | Previous Version | Text Only | Print | Product List | Glossary On
Versions: 1 2 3 4 5 6 7 8 9 10 11 12
000
FTUS45 KRIW 222300
TAFCPR
TAF
KCPR 222335Z 2300/2324 22030G38KT P6SM VCSH SCT040 BKN080
     FM230200 24025G35KT P6SM VCSH SCT015 BKN040
     FM230500 28020G30KT P6SM VCSH SCT015 BKN030
     FM231000 24015G25KT P6SM SCT050 BKN090
     FM231800 30012G20KT P6SM SCT070 BKN120=

USA.gov is the U.S. government's official web portal to all federal, state and local government web resources and services.